sensor_id;sensor_type;location;lat;lon;timestamp;P1;durP1;ratioP1;P2;durP2;ratioP2
29184;SDS011;16233;47.964;-3.842;2022-07-10T00:01:24;0.90;;;0.90;;
29184;SDS011;16233;47.964;-3.842;2022-07-10T00:03:25;0.98;;;0.98;;
29184;SDS011;16233;47.964;-3.842;2022-07-10T00:05:28;1.85;;;1.70;;
29184;SDS011;16233;47.964;-3.842;2022-07-10T00:07:29;3.25;;;0.98;;
29184;SDS011;16233;47.964;-3.842;2022-07-10T00:09:30;2.88;;;1.17;;
29184;SDS011;16233;47.964;-3.842;2022-07-10T00:11:31;1.38;;;1.00;;
29184;SDS011;16233;47.964;-3.842;2022-07-10T00:13:32;1.45;;;0.98;;
29184;SDS011;16233;47.964;-3.842;2022-07-10T00:15:33;1.10;;;1.10;;
29184;SDS011;16233;47.964;-3.842;2022-07-10T00:17:34;0.98;;;0.90;;
29184;SDS011;16233;47.964;-3.842;2022-07-10T00:19:35;1.00;;;1.00;;
29184;SDS011;16233;47.964;-3.842;2022-07-10T00:21:37;0.93;;;0.90;;
29184;SDS011;16233;47.964;-3.842;2022-07-10T00:23:38;0.77;;;0.77;;
29184;SDS011;16233;47.964;-3.842;2022-07-10T00:25:39;0.88;;;0.88;;
29184;SDS011;16233;47.964;-3.842;2022-07-10T00:27:40;1.10;;;1.00;;
29184;SDS011;16233;47.964;-3.842;2022-07-10T00:29:41;1.65;;;1.17;;
29184;SDS011;16233;47.964;-3.842;2022-07-10T00:31:42;1.15;;;1.02;;
29184;SDS011;16233;47.964;-3.842;2022-07-10T00:33:44;1.75;;;0.93;;
29184;SDS011;16233;47.964;-3.842;2022-07-10T00:35:45;2.25;;;1.25;;
29184;SDS011;16233;47.964;-3.842;2022-07-10T00:37:47;1.55;;;0.95;;
29184;SDS011;16233;47.964;-3.842;2022-07-10T00:39:48;2.03;;;1.00;;
29184;SDS011;16233;47.964;-3.842;2022-07-10T00:41:49;1.15;;;1.15;;
29184;SDS011;16233;47.964;-3.842;2022-07-10T00:43:53;1.23;;;1.23;;
29184;SDS011;16233;47.964;-3.842;2022-07-10T00:45:55;1.40;;;1.30;;
29184;SDS011;16233;47.964;-3.842;2022-07-10T00:47:56;4.03;;;1.63;;
29184;SDS011;16233;47.964;-3.842;2022-07-10T00:49:57;1.15;;;1.10;;
29184;SDS011;16233;47.964;-3.842;2022-07-10T00:51:59;3.15;;;1.10;;
29184;SDS011;16233;47.964;-3.842;2022-07-10T00:54:03;1.50;;;1.15;;
29184;SDS011;16233;47.964;-3.842;2022-07-10T00:56:05;1.90;;;1.15;;
29184;SDS011;16233;47.964;-3.842;2022-07-10T00:58:07;1.00;;;1.00;;
29184;SDS011;16233;47.964;-3.842;2022-07-10T01:00:10;1.95;;;1.02;;
29184;SDS011;16233;47.964;-3.842;2022-07-10T01:02:11;2.70;;;1.20;;
29184;SDS011;16233;47.964;-3.842;2022-07-10T01:04:13;1.20;;;1.10;;
29184;SDS011;16233;47.964;-3.842;2022-07-10T01:06:15;1.58;;;1.30;;
29184;SDS011;16233;47.964;-3.842;2022-07-10T01:08:16;1.20;;;1.10;;
29184;SDS011;16233;47.964;-3.842;2022-07-10T01:10:19;1.10;;;1.10;;
29184;SDS011;16233;47.964;-3.842;2022-07-10T01:12:20;1.17;;;1.00;;
29184;SDS011;16233;47.964;-3.842;2022-07-10T01:14:21;1.33;;;1.00;;
29184;SDS011;16233;47.964;-3.842;2022-07-10T01:16:22;1.00;;;1.00;;
29184;SDS011;16233;47.964;-3.842;2022-07-10T01:18:23;1.00;;;1.00;;
29184;SDS011;16233;47.964;-3.842;2022-07-10T01:20:29;1.08;;;1.00;;
29184;SDS011;16233;47.964;-3.842;2022-07-10T01:22:32;1.08;;;1.08;;
29184;SDS011;16233;47.964;-3.842;2022-07-10T01:24:33;3.25;;;1.10;;
29184;SDS011;16233;47.964;-3.842;2022-07-10T01:26:34;1.02;;;1.02;;
29184;SDS011;16233;47.964;-3.842;2022-07-10T01:28:36;0.95;;;0.95;;
29184;SDS011;16233;47.964;-3.842;2022-07-10T01:30:37;2.58;;;1.15;;
29184;SDS011;16233;47.964;-3.842;2022-07-10T01:32:38;3.72;;;1.02;;
29184;SDS011;16233;47.964;-3.842;2022-07-10T01:34:40;1.10;;;1.10;;
29184;SDS011;16233;47.964;-3.842;2022-07-10T01:36:41;1.10;;;1.10;;
29184;SDS011;16233;47.964;-3.842;2022-07-10T01:38:43;1.27;;;1.20;;
29184;SDS011;16233;47.964;-3.842;2022-07-10T01:40:44;1.30;;;1.20;;
29184;SDS011;16233;47.964;-3.842;2022-07-10T01:42:45;2.90;;;1.15;;
29184;SDS011;16233;47.964;-3.842;2022-07-10T01:44:46;1.23;;;1.13;;
29184;SDS011;16233;47.964;-3.842;2022-07-10T01:46:47;1.33;;;1.10;;
29184;SDS011;16233;47.964;-3.842;2022-07-10T01:48:48;0.90;;;0.90;;
29184;SDS011;16233;47.964;-3.842;2022-07-10T01:50:49;1.40;;;1.30;;
29184;SDS011;16233;47.964;-3.842;2022-07-10T01:52:50;1.73;;;1.08;;
29184;SDS011;16233;47.964;-3.842;2022-07-10T01:54:53;1.05;;;1.05;;
29184;SDS011;16233;47.964;-3.842;2022-07-10T01:56:54;3.65;;;1.40;;
29184;SDS011;16233;47.964;-3.842;2022-07-10T01:58:55;2.42;;;1.17;;
29184;SDS011;16233;47.964;-3.842;2022-07-10T02:00:56;1.40;;;1.30;;
29184;SDS011;16233;47.964;-3.842;2022-07-10T02:02:57;1.02;;;1.02;;
29184;SDS011;16233;47.964;-3.842;2022-07-10T02:04:58;1.40;;;1.30;;
29184;SDS011;16233;47.964;-3.842;2022-07-10T02:07:00;1.42;;;1.20;;
29184;SDS011;16233;47.964;-3.842;2022-07-10T02:09:03;1.45;;;1.30;;
29184;SDS011;16233;47.964;-3.842;2022-07-10T02:11:07;1.42;;;1.13;;
29184;SDS011;16233;47.964;-3.842;2022-07-10T02:13:08;1.58;;;1.40;;
29184;SDS011;16233;47.964;-3.842;2022-07-10T02:15:09;3.92;;;1.30;;
29184;SDS011;16233;47.964;-3.842;2022-07-10T02:17:10;1.88;;;1.33;;
29184;SDS011;16233;47.964;-3.842;2022-07-10T02:19:11;1.05;;;1.05;;
29184;SDS011;16233;47.964;-3.842;2022-07-10T02:21:12;3.50;;;1.40;;
29184;SDS011;16233;47.964;-3.842;2022-07-10T02:23:13;1.95;;;1.13;;
29184;SDS011;16233;47.964;-3.842;2022-07-10T02:25:14;0.93;;;0.93;;
29184;SDS011;16233;47.964;-3.842;2022-07-10T02:27:17;1.20;;;1.20;;
29184;SDS011;16233;47.964;-3.842;2022-07-10T02:29:18;1.60;;;1.50;;
29184;SDS011;16233;47.964;-3.842;2022-07-10T02:31:19;3.40;;;1.52;;
29184;SDS011;16233;47.964;-3.842;2022-07-10T02:33:20;1.38;;;1.27;;
29184;SDS011;16233;47.964;-3.842;2022-07-10T02:35:21;1.58;;;1.40;;
29184;SDS011;16233;47.964;-3.842;2022-07-10T02:37:22;1.25;;;1.15;;
29184;SDS011;16233;47.964;-3.842;2022-07-10T02:39:23;2.30;;;1.23;;
29184;SDS011;16233;47.964;-3.842;2022-07-10T02:41:24;1.23;;;1.20;;
29184;SDS011;16233;47.964;-3.842;2022-07-10T02:43:26;1.38;;;1.30;;
29184;SDS011;16233;47.964;-3.842;2022-07-10T02:45:27;1.67;;;1.23;;
29184;SDS011;16233;47.964;-3.842;2022-07-10T02:47:28;1.30;;;1.20;;
29184;SDS011;16233;47.964;-3.842;2022-07-10T02:49:29;2.03;;;1.50;;
29184;SDS011;16233;47.964;-3.842;2022-07-10T02:51:30;1.75;;;1.33;;
29184;SDS011;16233;47.964;-3.842;2022-07-10T02:53:31;1.33;;;1.23;;
29184;SDS011;16233;47.964;-3.842;2022-07-10T02:55:32;1.08;;;1.08;;
29184;SDS011;16233;47.964;-3.842;2022-07-10T02:57:33;1.33;;;1.23;;
29184;SDS011;16233;47.964;-3.842;2022-07-10T02:59:36;1.70;;;1.35;;
29184;SDS011;16233;47.964;-3.842;2022-07-10T03:01:37;1.17;;;1.17;;
29184;SDS011;16233;47.964;-3.842;2022-07-10T03:03:38;1.60;;;1.50;;
29184;SDS011;16233;47.964;-3.842;2022-07-10T03:05:39;2.08;;;1.13;;
29184;SDS011;16233;47.964;-3.842;2022-07-10T03:07:39;2.47;;;1.25;;
29184;SDS011;16233;47.964;-3.842;2022-07-10T03:09:40;1.23;;;1.23;;
29184;SDS011;16233;47.964;-3.842;2022-07-10T03:11:41;1.20;;;1.10;;
29184;SDS011;16233;47.964;-3.842;2022-07-10T03:13:42;1.42;;;1.13;;
29184;SDS011;16233;47.964;-3.842;2022-07-10T03:15:45;1.30;;;1.20;;
29184;SDS011;16233;47.964;-3.842;2022-07-10T03:17:46;1.00;;;1.00;;
29184;SDS011;16233;47.964;-3.842;2022-07-10T03:19:49;2.80;;;1.48;;
29184;SDS011;16233;47.964;-3.842;2022-07-10T03:21:50;2.60;;;1.38;;
29184;SDS011;16233;47.964;-3.842;2022-07-10T03:23:51;1.75;;;1.20;;
29184;SDS011;16233;47.964;-3.842;2022-07-10T03:25:52;1.60;;;1.30;;
29184;SDS011;16233;47.964;-3.842;2022-07-10T03:27:53;1.17;;;1.15;;
29184;SDS011;16233;47.964;-3.842;2022-07-10T03:29:54;1.50;;;1.40;;
29184;SDS011;16233;47.964;-3.842;2022-07-10T03:31:56;1.20;;;1.20;;
29184;SDS011;16233;47.964;-3.842;2022-07-10T03:33:57;1.30;;;1.20;;
29184;SDS011;16233;47.964;-3.842;2022-07-10T03:35:58;1.40;;;1.35;;
29184;SDS011;16233;47.964;-3.842;2022-07-10T03:37:59;1.92;;;1.10;;
29184;SDS011;16233;47.964;-3.842;2022-07-10T03:40:00;1.92;;;1.08;;
29184;SDS011;16233;47.964;-3.842;2022-07-10T03:42:02;1.40;;;1.30;;
29184;SDS011;16233;47.964;-3.842;2022-07-10T03:44:03;0.98;;;0.93;;
29184;SDS011;16233;47.964;-3.842;2022-07-10T03:46:04;1.20;;;1.10;;
29184;SDS011;16233;47.964;-3.842;2022-07-10T03:48:07;0.98;;;0.98;;
29184;SDS011;16233;47.964;-3.842;2022-07-10T03:50:08;1.98;;;1.75;;
29184;SDS011;16233;47.964;-3.842;2022-07-10T03:52:09;1.10;;;1.10;;
29184;SDS011;16233;47.964;-3.842;2022-07-10T03:54:10;1.38;;;1.23;;
29184;SDS011;16233;47.964;-3.842;2022-07-10T03:56:11;1.17;;;1.10;;
29184;SDS011;16233;47.964;-3.842;2022-07-10T03:58:12;2.30;;;1.20;;
29184;SDS011;16233;47.964;-3.842;2022-07-10T04:00:13;1.17;;;1.10;;
29184;SDS011;16233;47.964;-3.842;2022-07-10T04:02:15;1.10;;;1.10;;
29184;SDS011;16233;47.964;-3.842;2022-07-10T04:04:17;1.00;;;1.00;;
29184;SDS011;16233;47.964;-3.842;2022-07-10T04:06:18;1.20;;;1.10;;
29184;SDS011;16233;47.964;-3.842;2022-07-10T04:08:19;0.90;;;0.90;;
29184;SDS011;16233;47.964;-3.842;2022-07-10T04:10:20;1.48;;;1.20;;
29184;SDS011;16233;47.964;-3.842;2022-07-10T04:12:21;1.27;;;1.27;;
29184;SDS011;16233;47.964;-3.842;2022-07-10T04:14:22;1.42;;;1.20;;
29184;SDS011;16233;47.964;-3.842;2022-07-10T04:16:23;1.10;;;1.10;;
29184;SDS011;16233;47.964;-3.842;2022-07-10T04:18:24;1.13;;;1.10;;
29184;SDS011;16233;47.964;-3.842;2022-07-10T04:20:26;1.13;;;1.05;;
29184;SDS011;16233;47.964;-3.842;2022-07-10T04:22:27;2.40;;;1.23;;
29184;SDS011;16233;47.964;-3.842;2022-07-10T04:24:28;0.93;;;0.93;;
29184;SDS011;16233;47.964;-3.842;2022-07-10T04:26:29;1.88;;;1.25;;
29184;SDS011;16233;47.964;-3.842;2022-07-10T04:28:30;1.38;;;1.27;;
29184;SDS011;16233;47.964;-3.842;2022-07-10T04:30:31;1.10;;;1.00;;
29184;SDS011;16233;47.964;-3.842;2022-07-10T04:32:32;2.05;;;1.20;;
29184;SDS011;16233;47.964;-3.842;2022-07-10T04:34:33;1.23;;;1.13;;
29184;SDS011;16233;47.964;-3.842;2022-07-10T04:36:36;1.15;;;1.10;;
29184;SDS011;16233;47.964;-3.842;2022-07-10T04:38:37;1.33;;;1.20;;
29184;SDS011;16233;47.964;-3.842;2022-07-10T04:40:38;1.30;;;1.20;;
29184;SDS011;16233;47.964;-3.842;2022-07-10T04:42:39;1.60;;;1.20;;
29184;SDS011;16233;47.964;-3.842;2022-07-10T04:44:40;1.10;;;1.08;;
29184;SDS011;16233;47.964;-3.842;2022-07-10T04:46:41;3.70;;;1.35;;
29184;SDS011;16233;47.964;-3.842;2022-07-10T04:48:42;1.50;;;1.42;;
29184;SDS011;16233;47.964;-3.842;2022-07-10T04:50:43;2.63;;;1.10;;
29184;SDS011;16233;47.964;-3.842;2022-07-10T04:52:45;1.42;;;1.27;;
29184;SDS011;16233;47.964;-3.842;2022-07-10T04:54:46;1.42;;;1.30;;
29184;SDS011;16233;47.964;-3.842;2022-07-10T04:56:47;1.70;;;1.35;;
29184;SDS011;16233;47.964;-3.842;2022-07-10T04:58:48;1.25;;;1.25;;
29184;SDS011;16233;47.964;-3.842;2022-07-10T05:00:49;1.20;;;1.20;;
29184;SDS011;16233;47.964;-3.842;2022-07-10T05:02:50;1.50;;;1.40;;
29184;SDS011;16233;47.964;-3.842;2022-07-10T05:04:51;3.22;;;1.65;;
29184;SDS011;16233;47.964;-3.842;2022-07-10T05:06:54;1.00;;;1.00;;
29184;SDS011;16233;47.964;-3.842;2022-07-10T05:09:11;4.63;;;1.40;;
29184;SDS011;16233;47.964;-3.842;2022-07-10T05:11:12;7.97;;;1.20;;
29184;SDS011;16233;47.964;-3.842;2022-07-10T05:13:13;1.63;;;1.13;;
29184;SDS011;16233;47.964;-3.842;2022-07-10T05:15:14;1.85;;;1.00;;
29184;SDS011;16233;47.964;-3.842;2022-07-10T05:17:15;4.60;;;1.00;;
29184;SDS011;16233;47.964;-3.842;2022-07-10T05:19:16;1.23;;;0.95;;
29184;SDS011;16233;47.964;-3.842;2022-07-10T05:21:20;2.05;;;1.00;;
29184;SDS011;16233;47.964;-3.842;2022-07-10T05:23:21;2.35;;;1.20;;
29184;SDS011;16233;47.964;-3.842;2022-07-10T05:25:23;1.45;;;1.13;;
29184;SDS011;16233;47.964;-3.842;2022-07-10T05:27:24;1.10;;;1.10;;
29184;SDS011;16233;47.964;-3.842;2022-07-10T05:29:25;1.33;;;1.20;;
29184;SDS011;16233;47.964;-3.842;2022-07-10T05:31:26;0.90;;;0.90;;
29184;SDS011;16233;47.964;-3.842;2022-07-10T05:33:27;1.08;;;0.90;;
29184;SDS011;16233;47.964;-3.842;2022-07-10T05:35:28;0.90;;;0.90;;
29184;SDS011;16233;47.964;-3.842;2022-07-10T05:37:29;1.38;;;1.02;;
29184;SDS011;16233;47.964;-3.842;2022-07-10T05:39:30;1.52;;;1.10;;
29184;SDS011;16233;47.964;-3.842;2022-07-10T05:41:33;1.42;;;1.23;;
29184;SDS011;16233;47.964;-3.842;2022-07-10T05:43:34;1.38;;;1.17;;
29184;SDS011;16233;47.964;-3.842;2022-07-10T05:45:35;3.33;;;0.95;;
29184;SDS011;16233;47.964;-3.842;2022-07-10T05:47:36;1.00;;;1.00;;
29184;SDS011;16233;47.964;-3.842;2022-07-10T05:49:37;1.85;;;1.15;;
29184;SDS011;16233;47.964;-3.842;2022-07-10T05:51:38;1.35;;;1.20;;
29184;SDS011;16233;47.964;-3.842;2022-07-10T05:53:39;0.90;;;0.90;;
29184;SDS011;16233;47.964;-3.842;2022-07-10T05:55:40;1.20;;;1.10;;
29184;SDS011;16233;47.964;-3.842;2022-07-10T05:57:43;1.52;;;0.80;;
29184;SDS011;16233;47.964;-3.842;2022-07-10T05:59:44;1.00;;;1.00;;
29184;SDS011;16233;47.964;-3.842;2022-07-10T06:01:45;1.00;;;1.00;;
29184;SDS011;16233;47.964;-3.842;2022-07-10T06:03:46;0.93;;;0.93;;
29184;SDS011;16233;47.964;-3.842;2022-07-10T06:05:47;1.02;;;1.02;;
29184;SDS011;16233;47.964;-3.842;2022-07-10T06:07:48;2.75;;;1.02;;
29184;SDS011;16233;47.964;-3.842;2022-07-10T06:09:50;2.58;;;0.90;;
29184;SDS011;16233;47.964;-3.842;2022-07-10T06:11:51;0.98;;;0.90;;
29184;SDS011;16233;47.964;-3.842;2022-07-10T06:13:54;1.13;;;0.80;;
29184;SDS011;16233;47.964;-3.842;2022-07-10T06:15:55;1.27;;;1.00;;
29184;SDS011;16233;47.964;-3.842;2022-07-10T06:17:56;0.95;;;0.90;;
29184;SDS011;16233;47.964;-3.842;2022-07-10T06:19:57;1.20;;;1.10;;
29184;SDS011;16233;47.964;-3.842;2022-07-10T06:21:58;1.73;;;0.90;;
29184;SDS011;16233;47.964;-3.842;2022-07-10T06:23:59;1.10;;;1.10;;
29184;SDS011;16233;47.964;-3.842;2022-07-10T06:26:00;0.80;;;0.80;;
29184;SDS011;16233;47.964;-3.842;2022-07-10T06:28:01;1.48;;;0.93;;
29184;SDS011;16233;47.964;-3.842;2022-07-10T06:30:13;1.33;;;1.10;;
29184;SDS011;16233;47.964;-3.842;2022-07-10T06:32:14;1.48;;;1.30;;
29184;SDS011;16233;47.964;-3.842;2022-07-10T06:34:17;0.93;;;0.93;;
29184;SDS011;16233;47.964;-3.842;2022-07-10T06:36:22;0.80;;;0.80;;
29184;SDS011;16233;47.964;-3.842;2022-07-10T06:38:23;0.80;;;0.80;;
29184;SDS011;16233;47.964;-3.842;2022-07-10T06:40:24;1.45;;;0.70;;
29184;SDS011;16233;47.964;-3.842;2022-07-10T06:42:26;0.90;;;0.90;;
29184;SDS011;16233;47.964;-3.842;2022-07-10T06:44:27;1.02;;;0.90;;
29184;SDS011;16233;47.964;-3.842;2022-07-10T06:46:29;1.02;;;0.98;;
29184;SDS011;16233;47.964;-3.842;2022-07-10T06:48:31;0.80;;;0.80;;
29184;SDS011;16233;47.964;-3.842;2022-07-10T06:50:32;1.38;;;0.90;;
29184;SDS011;16233;47.964;-3.842;2022-07-10T06:52:35;1.02;;;0.90;;
29184;SDS011;16233;47.964;-3.842;2022-07-10T06:54:38;1.38;;;0.98;;
29184;SDS011;16233;47.964;-3.842;2022-07-10T06:56:39;0.80;;;0.80;;
29184;SDS011;16233;47.964;-3.842;2022-07-10T06:58:41;0.90;;;0.90;;
29184;SDS011;16233;47.964;-3.842;2022-07-10T07:00:42;1.05;;;1.00;;
29184;SDS011;16233;47.964;-3.842;2022-07-10T07:02:44;2.05;;;1.80;;
29184;SDS011;16233;47.964;-3.842;2022-07-10T07:04:45;0.80;;;0.80;;
29184;SDS011;16233;47.964;-3.842;2022-07-10T07:06:46;1.17;;;1.10;;
29184;SDS011;16233;47.964;-3.842;2022-07-10T07:08:47;1.45;;;0.70;;
29184;SDS011;16233;47.964;-3.842;2022-07-10T07:10:48;1.50;;;0.70;;
29184;SDS011;16233;47.964;-3.842;2022-07-10T07:12:50;1.17;;;1.17;;
29184;SDS011;16233;47.964;-3.842;2022-07-10T07:14:51;0.85;;;0.63;;
29184;SDS011;16233;47.964;-3.842;2022-07-10T07:16:52;0.90;;;0.90;;
29184;SDS011;16233;47.964;-3.842;2022-07-10T07:18:54;1.60;;;0.93;;
29184;SDS011;16233;47.964;-3.842;2022-07-10T07:20:55;2.83;;;0.68;;
29184;SDS011;16233;47.964;-3.842;2022-07-10T07:22:56;1.90;;;1.80;;
29184;SDS011;16233;47.964;-3.842;2022-07-10T07:24:57;0.55;;;0.55;;
29184;SDS011;16233;47.964;-3.842;2022-07-10T07:26:58;0.80;;;0.80;;
29184;SDS011;16233;47.964;-3.842;2022-07-10T07:28:59;2.50;;;0.73;;
29184;SDS011;16233;47.964;-3.842;2022-07-10T07:31:00;1.17;;;0.80;;
29184;SDS011;16233;47.964;-3.842;2022-07-10T07:33:01;0.77;;;0.77;;
29184;SDS011;16233;47.964;-3.842;2022-07-10T07:35:04;1.85;;;0.70;;
29184;SDS011;16233;47.964;-3.842;2022-07-10T07:37:06;0.70;;;0.70;;
29184;SDS011;16233;47.964;-3.842;2022-07-10T07:39:07;0.60;;;0.60;;
29184;SDS011;16233;47.964;-3.842;2022-07-10T07:41:08;0.70;;;0.70;;
29184;SDS011;16233;47.964;-3.842;2022-07-10T07:43:09;0.60;;;0.60;;
29184;SDS011;16233;47.964;-3.842;2022-07-10T07:45:10;0.60;;;0.60;;
29184;SDS011;16233;47.964;-3.842;2022-07-10T07:47:11;0.68;;;0.68;;
29184;SDS011;16233;47.964;-3.842;2022-07-10T07:49:12;0.57;;;0.57;;
29184;SDS011;16233;47.964;-3.842;2022-07-10T07:51:15;0.60;;;0.60;;
29184;SDS011;16233;47.964;-3.842;2022-07-10T07:53:16;0.60;;;0.60;;
29184;SDS011;16233;47.964;-3.842;2022-07-10T07:55:17;0.60;;;0.60;;
29184;SDS011;16233;47.964;-3.842;2022-07-10T07:57:22;0.82;;;0.70;;
29184;SDS011;16233;47.964;-3.842;2022-07-10T07:59:29;0.70;;;0.60;;
29184;SDS011;16233;47.964;-3.842;2022-07-10T08:01:33;0.75;;;0.75;;
29184;SDS011;16233;47.964;-3.842;2022-07-10T08:03:34;0.70;;;0.70;;
29184;SDS011;16233;47.964;-3.842;2022-07-10T08:05:35;0.85;;;0.70;;
29184;SDS011;16233;47.964;-3.842;2022-07-10T08:07:37;0.52;;;0.50;;
29184;SDS011;16233;47.964;-3.842;2022-07-10T08:09:39;0.60;;;0.60;;
29184;SDS011;16233;47.964;-3.842;2022-07-10T08:11:41;0.75;;;0.75;;
29184;SDS011;16233;47.964;-3.842;2022-07-10T08:13:42;0.50;;;0.50;;
29184;SDS011;16233;47.964;-3.842;2022-07-10T08:15:43;1.48;;;0.60;;
29184;SDS011;16233;47.964;-3.842;2022-07-10T08:17:46;1.58;;;0.63;;
29184;SDS011;16233;47.964;-3.842;2022-07-10T08:19:48;0.70;;;0.70;;
29184;SDS011;16233;47.964;-3.842;2022-07-10T08:21:49;1.70;;;0.60;;
29184;SDS011;16233;47.964;-3.842;2022-07-10T08:23:51;0.60;;;0.60;;
29184;SDS011;16233;47.964;-3.842;2022-07-10T08:25:52;0.65;;;0.60;;
29184;SDS011;16233;47.964;-3.842;2022-07-10T08:27:53;0.88;;;0.73;;
29184;SDS011;16233;47.964;-3.842;2022-07-10T08:29:54;0.70;;;0.70;;
29184;SDS011;16233;47.964;-3.842;2022-07-10T08:31:55;0.60;;;0.60;;
29184;SDS011;16233;47.964;-3.842;2022-07-10T08:33:56;0.55;;;0.52;;
29184;SDS011;16233;47.964;-3.842;2022-07-10T08:35:57;0.85;;;0.85;;
29184;SDS011;16233;47.964;-3.842;2022-07-10T08:37:58;0.68;;;0.52;;
29184;SDS011;16233;47.964;-3.842;2022-07-10T08:40:00;0.60;;;0.60;;
29184;SDS011;16233;47.964;-3.842;2022-07-10T08:42:02;0.70;;;0.70;;
29184;SDS011;16233;47.964;-3.842;2022-07-10T08:44:06;1.08;;;0.60;;
29184;SDS011;16233;47.964;-3.842;2022-07-10T08:46:07;0.80;;;0.52;;
29184;SDS011;16233;47.964;-3.842;2022-07-10T08:48:11;0.95;;;0.52;;
29184;SDS011;16233;47.964;-3.842;2022-07-10T08:50:15;0.68;;;0.63;;
29184;SDS011;16233;47.964;-3.842;2022-07-10T08:52:23;0.50;;;0.50;;
29184;SDS011;16233;47.964;-3.842;2022-07-10T08:54:27;0.52;;;0.52;;
29184;SDS011;16233;47.964;-3.842;2022-07-10T08:56:30;0.90;;;0.68;;
29184;SDS011;16233;47.964;-3.842;2022-07-10T08:58:32;1.00;;;0.60;;
29184;SDS011;16233;47.964;-3.842;2022-07-10T09:00:34;0.60;;;0.60;;
29184;SDS011;16233;47.964;-3.842;2022-07-10T09:02:35;0.50;;;0.50;;
29184;SDS011;16233;47.964;-3.842;2022-07-10T09:04:36;0.95;;;0.52;;
29184;SDS011;16233;47.964;-3.842;2022-07-10T09:06:37;0.75;;;0.60;;
29184;SDS011;16233;47.964;-3.842;2022-07-10T09:08:38;0.52;;;0.52;;
29184;SDS011;16233;47.964;-3.842;2022-07-10T09:11:12;2.15;;;0.60;;
29184;SDS011;16233;47.964;-3.842;2022-07-10T09:13:16;0.47;;;0.47;;
29184;SDS011;16233;47.964;-3.842;2022-07-10T09:15:18;1.02;;;0.52;;
29184;SDS011;16233;47.964;-3.842;2022-07-10T09:17:20;2.63;;;0.70;;
29184;SDS011;16233;47.964;-3.842;2022-07-10T09:19:21;3.40;;;0.70;;
29184;SDS011;16233;47.964;-3.842;2022-07-10T09:21:24;0.80;;;0.80;;
29184;SDS011;16233;47.964;-3.842;2022-07-10T09:23:25;1.23;;;0.77;;
29184;SDS011;16233;47.964;-3.842;2022-07-10T09:25:32;0.40;;;0.40;;
29184;SDS011;16233;47.964;-3.842;2022-07-10T09:27:33;0.68;;;0.68;;
29184;SDS011;16233;47.964;-3.842;2022-07-10T09:29:53;0.85;;;0.63;;
29184;SDS011;16233;47.964;-3.842;2022-07-10T09:31:54;2.90;;;0.50;;
29184;SDS011;16233;47.964;-3.842;2022-07-10T09:33:57;1.85;;;0.60;;
29184;SDS011;16233;47.964;-3.842;2022-07-10T09:36:00;0.70;;;0.70;;
29184;SDS011;16233;47.964;-3.842;2022-07-10T09:38:02;0.63;;;0.63;;
29184;SDS011;16233;47.964;-3.842;2022-07-10T09:40:07;0.68;;;0.50;;
29184;SDS011;16233;47.964;-3.842;2022-07-10T09:42:09;0.50;;;0.50;;
29184;SDS011;16233;47.964;-3.842;2022-07-10T09:44:25;1.10;;;0.60;;
29184;SDS011;16233;47.964;-3.842;2022-07-10T09:46:28;0.60;;;0.60;;
29184;SDS011;16233;47.964;-3.842;2022-07-10T09:48:31;2.70;;;0.60;;
29184;SDS011;16233;47.964;-3.842;2022-07-10T09:50:33;0.60;;;0.60;;
29184;SDS011;16233;47.964;-3.842;2022-07-10T09:52:35;0.60;;;0.60;;
29184;SDS011;16233;47.964;-3.842;2022-07-10T09:54:37;1.27;;;0.60;;
29184;SDS011;16233;47.964;-3.842;2022-07-10T09:56:40;0.50;;;0.50;;
29184;SDS011;16233;47.964;-3.842;2022-07-10T09:58:41;3.00;;;2.17;;
29184;SDS011;16233;47.964;-3.842;2022-07-10T10:00:45;2.75;;;2.47;;
29184;SDS011;16233;47.964;-3.842;2022-07-10T10:02:47;9.10;;;5.53;;
29184;SDS011;16233;47.964;-3.842;2022-07-10T10:04:50;3.20;;;2.03;;
29184;SDS011;16233;47.964;-3.842;2022-07-10T10:06:57;4.72;;;1.60;;
29184;SDS011;16233;47.964;-3.842;2022-07-10T10:09:04;0.90;;;0.90;;
29184;SDS011;16233;47.964;-3.842;2022-07-10T10:11:07;1.92;;;0.75;;
29184;SDS011;16233;47.964;-3.842;2022-07-10T10:13:15;0.75;;;0.75;;
29184;SDS011;16233;47.964;-3.842;2022-07-10T10:15:17;1.25;;;1.15;;
29184;SDS011;16233;47.964;-3.842;2022-07-10T10:17:19;0.65;;;0.65;;
29184;SDS011;16233;47.964;-3.842;2022-07-10T10:19:24;0.88;;;0.88;;
29184;SDS011;16233;47.964;-3.842;2022-07-10T10:21:26;0.85;;;0.80;;
29184;SDS011;16233;47.964;-3.842;2022-07-10T10:23:30;4.88;;;1.13;;
29184;SDS011;16233;47.964;-3.842;2022-07-10T10:25:32;2.47;;;1.05;;
29184;SDS011;16233;47.964;-3.842;2022-07-10T10:27:33;3.92;;;0.80;;
29184;SDS011;16233;47.964;-3.842;2022-07-10T10:29:34;1.83;;;1.20;;
29184;SDS011;16233;47.964;-3.842;2022-07-10T10:31:36;1.48;;;1.33;;
29184;SDS011;16233;47.964;-3.842;2022-07-10T10:33:42;0.77;;;0.77;;
29184;SDS011;16233;47.964;-3.842;2022-07-10T10:35:45;1.52;;;0.70;;
29184;SDS011;16233;47.964;-3.842;2022-07-10T10:37:48;0.70;;;0.70;;
29184;SDS011;16233;47.964;-3.842;2022-07-10T10:39:51;0.68;;;0.68;;
29184;SDS011;16233;47.964;-3.842;2022-07-10T10:41:53;2.78;;;1.85;;
29184;SDS011;16233;47.964;-3.842;2022-07-10T10:46:23;0.77;;;0.70;;
29184;SDS011;16233;47.964;-3.842;2022-07-10T10:48:24;0.63;;;0.60;;
29184;SDS011;16233;47.964;-3.842;2022-07-10T10:50:35;0.70;;;0.70;;
29184;SDS011;16233;47.964;-3.842;2022-07-10T10:52:40;0.68;;;0.50;;
29184;SDS011;16233;47.964;-3.842;2022-07-10T10:57:13;0.60;;;0.60;;
29184;SDS011;16233;47.964;-3.842;2022-07-10T11:01:44;0.40;;;0.40;;
29184;SDS011;16233;47.964;-3.842;2022-07-10T11:03:56;0.60;;;0.60;;
29184;SDS011;16233;47.964;-3.842;2022-07-10T11:06:13;0.50;;;0.50;;
29184;SDS011;16233;47.964;-3.842;2022-07-10T11:08:36;1.95;;;0.47;;
29184;SDS011;16233;47.964;-3.842;2022-07-10T11:10:39;0.75;;;0.52;;
29184;SDS011;16233;47.964;-3.842;2022-07-10T11:12:55;0.57;;;0.57;;
29184;SDS011;16233;47.964;-3.842;2022-07-10T11:14:58;1.77;;;0.50;;
29184;SDS011;16233;47.964;-3.842;2022-07-10T11:17:00;0.60;;;0.60;;
29184;SDS011;16233;47.964;-3.842;2022-07-10T11:19:01;2.25;;;0.60;;
29184;SDS011;16233;47.964;-3.842;2022-07-10T11:21:02;0.50;;;0.50;;
29184;SDS011;16233;47.964;-3.842;2022-07-10T11:23:16;0.50;;;0.50;;
29184;SDS011;16233;47.964;-3.842;2022-07-10T11:25:40;0.50;;;0.50;;
29184;SDS011;16233;47.964;-3.842;2022-07-10T11:28:02;1.95;;;0.60;;
29184;SDS011;16233;47.964;-3.842;2022-07-10T11:30:05;0.60;;;0.60;;
29184;SDS011;16233;47.964;-3.842;2022-07-10T11:32:07;1.50;;;0.60;;
29184;SDS011;16233;47.964;-3.842;2022-07-10T11:34:08;0.75;;;0.65;;
29184;SDS011;16233;47.964;-3.842;2022-07-10T11:36:10;0.63;;;0.63;;
29184;SDS011;16233;47.964;-3.842;2022-07-10T11:38:12;0.55;;;0.55;;
29184;SDS011;16233;47.964;-3.842;2022-07-10T11:40:13;0.50;;;0.50;;
29184;SDS011;16233;47.964;-3.842;2022-07-10T11:42:17;0.65;;;0.65;;
29184;SDS011;16233;47.964;-3.842;2022-07-10T11:44:18;0.65;;;0.65;;
29184;SDS011;16233;47.964;-3.842;2022-07-10T11:46:19;0.55;;;0.55;;
29184;SDS011;16233;47.964;-3.842;2022-07-10T11:48:21;0.70;;;0.70;;
29184;SDS011;16233;47.964;-3.842;2022-07-10T11:50:22;0.65;;;0.60;;
29184;SDS011;16233;47.964;-3.842;2022-07-10T11:52:24;0.70;;;0.70;;
29184;SDS011;16233;47.964;-3.842;2022-07-10T11:54:25;0.70;;;0.70;;
29184;SDS011;16233;47.964;-3.842;2022-07-10T11:56:29;0.65;;;0.65;;
29184;SDS011;16233;47.964;-3.842;2022-07-10T11:58:33;0.85;;;0.85;;
29184;SDS011;16233;47.964;-3.842;2022-07-10T12:00:34;0.70;;;0.70;;
29184;SDS011;16233;47.964;-3.842;2022-07-10T12:02:35;0.75;;;0.75;;
29184;SDS011;16233;47.964;-3.842;2022-07-10T12:04:36;0.80;;;0.80;;
29184;SDS011;16233;47.964;-3.842;2022-07-10T12:06:37;0.60;;;0.60;;
29184;SDS011;16233;47.964;-3.842;2022-07-10T12:08:45;0.75;;;0.75;;
29184;SDS011;16233;47.964;-3.842;2022-07-10T12:10:46;0.80;;;0.80;;
29184;SDS011;16233;47.964;-3.842;2022-07-10T12:12:48;0.70;;;0.70;;